Time;durP1;ratioP1;P1;durP2;ratioP2;P2;SDS_P1;SDS_P2;PMS_P1;PMS_P2;Temp;Humidity;BMP_temperature;BMP_pressure;BME280_temperature;BME280_humidity;BME280_pressure;Samples;Min_cycle;Max_cycle;Signal;HPM_P1;HPM_P2
2021/05/22 00:01:32;;;;;;;5.95;2.37;;;;;;;11.58;73.99;100804.05;1667657;85;20966;-75
2021/05/22 00:03:59;;;;;;;2.10;1.62;;;;;;;11.58;73.87;100800.97;1667974;85;20970;-78
2021/05/22 00:06:26;;;;;;;5.65;2.25;;;;;;;11.60;73.75;100810.92;1668018;84;21048;-75
2021/05/22 00:08:53;;;;;;;4.17;1.82;;;;;;;11.59;73.81;100818.88;1667593;84;20910;-73
2021/05/22 00:11:21;;;;;;;6.65;2.20;;;;;;;11.59;73.68;100819.72;1668031;86;20906;-77
2021/05/22 00:13:50;;;;;;;5.97;2.62;;;;;;;11.59;73.77;100817.09;1668346;86;20879;-78
2021/05/22 00:16:17;;;;;;;6.33;2.65;;;;;;;11.60;73.81;100813.98;1668314;86;20934;-74
2021/05/22 00:18:45;;;;;;;2.70;2.02;;;;;;;11.58;73.73;100821.98;1666957;86;21067;-76
2021/05/22 00:21:13;;;;;;;8.85;2.50;;;;;;;11.57;73.75;100822.07;1665461;85;21009;-76
2021/05/22 00:23:40;;;;;;;6.05;3.22;;;;;;;11.54;73.64;100818.33;1665308;86;20934;-75
2021/05/22 00:26:07;;;;;;;11.40;2.37;;;;;;;11.50;73.81;100821.59;1665041;85;20962;-75
2021/05/22 00:28:34;;;;;;;3.15;2.40;;;;;;;11.47;73.83;100820.92;1664971;85;20962;-76
2021/05/22 00:31:01;;;;;;;4.85;2.42;;;;;;;11.43;73.91;100822.05;1664868;84;21020;-74
2021/05/22 00:33:28;;;;;;;7.35;2.77;;;;;;;11.41;73.95;100823.47;1664795;86;20882;-75
2021/05/22 00:35:55;;;;;;;5.90;2.87;;;;;;;11.41;74.08;100822.16;1664919;86;20946;-75
2021/05/22 00:38:22;;;;;;;5.78;2.67;;;;;;;11.40;74.05;100817.38;1664782;84;20977;-75
2021/05/22 00:40:49;;;;;;;7.90;2.12;;;;;;;11.40;73.89;100822.64;1665106;86;21461;-76
2021/05/22 00:43:16;;;;;;;3.85;1.98;;;;;;;11.37;73.93;100819.34;1665052;86;21064;-75
2021/05/22 00:45:44;;;;;;;2.15;1.82;;;;;;;11.33;74.19;100824.39;1664819;85;21577;-76
2021/05/22 00:48:11;;;;;;;5.50;2.33;;;;;;;11.31;74.44;100826.26;1664749;86;21394;-74
2021/05/22 00:50:41;;;;;;;7.78;2.35;;;;;;;11.29;74.60;100821.09;1664907;86;20937;-74
2021/05/22 00:53:09;;;;;;;8.70;2.60;;;;;;;11.29;74.50;100803.19;1664891;86;20930;-75
2021/05/22 00:55:36;;;;;;;5.78;3.40;;;;;;;11.26;74.46;100795.03;1664822;86;21083;-75
2021/05/22 00:58:03;;;;;;;7.33;3.52;;;;;;;;;;1664605;86;21656;-75
2021/05/22 01:00:50;;;;;;;5.15;2.22;;;;;;;11.24;74.49;100798.69;1664752;86;20946;-73
2021/05/22 01:03:33;;;;;;;7.17;2.67;;;;;;;11.22;74.45;100806.65;1664683;84;20970;-75
2021/05/22 01:06:27;;;;;;;7.30;2.10;;;;;;;11.20;74.57;100808.52;1663905;86;20914;-75
2021/05/22 01:09:10;;;;;;;6.60;2.72;;;;;;;11.18;74.65;100823.06;1664840;86;21677;-74
2021/05/22 01:11:46;;;;;;;;;;;;;;;11.15;74.83;100825.02;1667140;85;20907;-75
2021/05/22 01:14:40;;;;;;;7.87;3.50;;;;;;;11.14;74.81;100821.55;1664861;84;20491;-75
2021/05/22 01:17:08;;;;;;;4.95;2.35;;;;;;;11.06;74.91;100810.66;1623645;88;21431;-76
2021/05/22 01:19:50;;;;;;;8.00;2.10;;;;;;;10.97;75.04;100803.33;1644115;87;20894;-76
2021/05/22 01:22:17;;;;;;;8.80;3.22;;;;;;;10.97;75.06;100817.28;1644215;87;21810;-77
2021/05/22 01:25:07;;;;;;;6.30;2.60;;;;;;;10.96;75.09;100823.48;1644231;87;20990;-75
2021/05/22 01:27:34;;;;;;;6.45;2.58;;;;;;;10.93;75.08;100818.88;1644039;87;20995;-75
2021/05/22 01:30:04;;;;;;;6.45;2.12;;;;;;;10.92;75.19;100827.69;1644111;87;21017;-76
2021/05/22 01:32:31;;;;;;;6.72;2.83;;;;;;;10.90;75.35;100829.55;1644134;87;20902;-75
2021/05/22 01:34:58;;;;;;;6.42;2.85;;;;;;;10.89;75.41;100826.53;1619942;87;21101;-76
2021/05/22 01:37:25;;;;;;;8.68;2.62;;;;;;;10.86;75.54;100809.67;1644189;87;21439;-77
2021/05/22 01:39:52;;;;;;;4.17;2.42;;;;;;;10.87;75.67;100820.09;1658270;86;21024;-76
2021/05/22 01:42:20;;;;;;;6.03;2.77;;;;;;;10.90;75.76;100812.50;1660527;86;20966;-77
2021/05/22 01:44:47;;;;;;;5.45;2.52;;;;;;;10.88;76.01;100812.58;1637535;86;20946;-76
2021/05/22 01:47:14;;;;;;;6.08;2.85;;;;;;;10.89;76.10;100812.11;1637388;86;21826;-76
2021/05/22 01:49:40;;;;;;;5.53;2.25;;;;;;;10.88;76.04;100821.77;1637723;86;20900;-76
2021/05/22 01:52:07;;;;;;;4.20;1.80;;;;;;;10.89;75.98;100817.35;1686652;84;20908;-74
2021/05/22 01:54:34;;;;;;;4.03;2.12;;;;;;;10.89;75.97;100813.41;1662028;85;20964;-75
2021/05/22 01:57:01;;;;;;;5.08;2.52;;;;;;;10.89;75.94;100813.41;1663435;85;20896;-73
2021/05/22 01:59:28;;;;;;;7.70;2.58;;;;;;;10.88;75.81;100813.05;1664170;84;21432;-73
2021/05/22 02:01:57;;;;;;;4.15;2.20;;;;;;;10.85;75.72;100818.02;1686825;85;20971;-75
2021/05/22 02:04:26;;;;;;;3.52;1.98;;;;;;;10.84;75.67;100816.31;1686688;85;21035;-76
2021/05/22 02:06:53;;;;;;;2.60;2.05;;;;;;;10.84;75.75;100821.56;1686579;84;21116;-74
2021/05/22 02:09:20;;;;;;;4.10;2.30;;;;;;;10.86;75.78;100816.23;1686674;84;20944;-75
2021/05/22 02:11:49;;;;;;;6.53;2.72;;;;;;;10.88;75.72;100818.30;1686456;84;21665;-74
2021/05/22 02:14:27;;;;;;;3.65;2.67;;;;;;;10.90;75.72;100816.44;1686482;84;20900;-75
2021/05/22 02:16:54;;;;;;;4.53;2.20;;;;;;;10.90;75.63;100817.27;1686661;84;21008;-75
2021/05/22 02:19:22;;;;;;;4.28;2.25;;;;;;;10.93;75.41;100828.05;1661840;84;21059;-76
2021/05/22 02:21:49;;;;;;;4.67;2.27;;;;;;;10.92;75.47;100827.69;1686607;85;21385;-75
2021/05/22 02:24:18;;;;;;;7.40;2.70;;;;;;;10.91;75.52;100838.62;1686576;84;21047;-76
2021/05/22 02:26:45;;;;;;;7.03;2.55;;;;;;;10.93;75.46;100844.63;1686555;84;20956;-75
2021/05/22 02:29:18;;;;;;;11.25;3.52;;;;;;;10.94;75.51;100835.84;1686551;84;20999;-76
2021/05/22 02:31:47;;;;;;;12.13;1.98;;;;;;;10.96;75.46;100843.16;1686604;84;21035;-75
2021/05/22 02:34:15;;;;;;;10.93;4.12;;;;;;;11.02;75.16;100854.23;1686625;85;20979;-76
2021/05/22 02:36:43;;;;;;;4.75;2.12;;;;;;;11.04;74.81;100861.55;1686509;85;21521;-75
2021/05/22 02:39:10;;;;;;;3.62;2.45;;;;;;;11.05;74.85;100858.84;1687386;84;21488;-75
2021/05/22 02:41:37;;;;;;;4.45;2.08;;;;;;;11.06;74.94;100857.05;1692981;84;20955;-75
2021/05/22 02:44:05;;;;;;;4.83;2.40;;;;;;;11.04;75.02;100858.92;1692849;84;21555;-75
2021/05/22 02:46:35;;;;;;;2.17;1.90;;;;;;;11.06;75.09;100853.13;1693004;84;20883;-74
2021/05/22 02:49:02;;;;;;;6.17;2.37;;;;;;;11.12;75.27;100859.33;1664874;84;21759;-75
2021/05/22 02:51:29;;;;;;;4.67;2.22;;;;;;;11.17;75.31;100852.02;1692891;84;20920;-73
2021/05/22 02:53:55;;;;;;;3.55;2.40;;;;;;;11.23;75.27;100853.42;1692916;84;21015;-75
2021/05/22 02:56:22;;;;;;;2.98;1.80;;;;;;;11.29;75.14;100857.84;1692989;84;21047;-78
2021/05/22 02:58:50;;;;;;;2.90;2.15;;;;;;;11.37;75.10;100853.47;1692868;84;21432;-76
2021/05/22 03:01:16;;;;;;;2.22;2.02;;;;;;;11.43;74.63;100868.87;1692986;84;21063;-74
2021/05/22 03:03:43;;;;;;;5.58;2.67;;;;;;;11.48;74.56;100861.55;1688399;84;21059;-77
2021/05/22 03:06:10;;;;;;;7.55;2.20;;;;;;;11.57;74.76;100861.47;1692998;84;21195;-76
2021/05/22 03:08:46;;;;;;;7.03;2.15;;;;;;;11.65;74.39;100866.24;1693029;84;20928;-75
2021/05/22 03:11:15;;;;;;;4.10;2.10;;;;;;;11.74;74.42;100872.28;1693055;84;20991;-75
2021/05/22 03:13:42;;;;;;;2.92;2.05;;;;;;;11.84;73.90;100874.70;1693038;84;21105;-74
2021/05/22 03:16:09;;;;;;;4.97;2.90;;;;;;;11.91;73.72;100876.04;1693059;84;20885;-76
2021/05/22 03:18:36;;;;;;;12.30;3.22;;;;;;;12.00;73.56;100884.67;1692951;84;21440;-76
2021/05/22 03:21:04;;;;;;;10.80;3.83;;;;;;;12.06;73.37;100887.88;1693122;84;21031;-74
2021/05/22 03:23:31;;;;;;;6.50;5.35;;;;;;;12.11;73.17;100895.84;1693074;84;20940;-75
2021/05/22 03:26:00;;;;;;;8.68;2.83;;;;;;;12.18;73.23;100911.63;1692953;84;21417;-77
2021/05/22 03:28:26;;;;;;;3.98;2.05;;;;;;;12.27;73.00;100914.61;1693005;84;20995;-77
2021/05/22 03:30:54;;;;;;;4.75;3.30;;;;;;;12.32;72.38;100919.97;1692909;84;21007;-76
2021/05/22 03:33:21;;;;;;;4.22;2.80;;;;;;;12.36;71.61;100921.47;1692889;84;21405;-76
2021/05/22 03:35:48;;;;;;;7.33;3.27;;;;;;;12.43;71.59;100934.61;1692917;84;20927;-77
2021/05/22 03:38:15;;;;;;;6.28;3.62;;;;;;;12.51;71.69;100936.73;1692988;84;20963;-76
2021/05/22 03:40:41;;;;;;;3.37;2.25;;;;;;;12.57;71.59;100940.30;1671631;83;20984;-76
2021/05/22 03:43:08;;;;;;;5.50;2.15;;;;;;;12.65;70.91;100947.73;1670098;85;21531;-77
2021/05/22 03:45:35;;;;;;;4.05;2.00;;;;;;;12.71;70.56;100960.47;1669935;86;21007;-76
2021/05/22 03:48:04;;;;;;;12.82;2.62;;;;;;;12.79;70.49;100956.89;1670176;84;21011;-75
2021/05/22 03:50:31;;;;;;;5.95;2.30;;;;;;;12.86;70.27;100962.13;1670121;84;21079;-76
2021/05/22 03:52:58;;;;;;;5.83;2.02;;;;;;;12.93;70.05;100970.48;1670110;84;21038;-76
2021/05/22 03:55:26;;;;;;;4.78;2.33;;;;;;;12.97;69.55;100977.72;1670054;84;20980;-76
2021/05/22 03:57:52;;;;;;;7.30;2.12;;;;;;;13.01;69.49;100973.95;1670050;84;21554;-76
2021/05/22 04:00:20;;;;;;;3.35;2.00;;;;;;;13.05;69.42;100981.55;1670222;86;20959;-76
2021/05/22 04:02:47;;;;;;;4.97;1.75;;;;;;;13.11;69.04;100984.72;1670093;84;21105;-75
2021/05/22 04:05:14;;;;;;;10.55;2.70;;;;;;;13.17;68.94;100993.06;1670112;84;21006;-76
2021/05/22 04:07:44;;;;;;;3.45;2.22;;;;;;;13.20;69.17;100992.02;1670091;84;20935;-75
2021/05/22 04:10:12;;;;;;;4.75;1.82;;;;;;;13.24;69.48;100989.56;1670186;84;20943;-75
2021/05/22 04:12:39;;;;;;;2.50;2.20;;;;;;;13.38;69.30;100984.25;1670151;86;20920;-75
2021/05/22 04:15:07;;;;;;;2.72;2.33;;;;;;;13.61;68.80;100988.02;1670042;84;21099;-76
2021/05/22 04:17:34;;;;;;;6.40;2.42;;;;;;;13.94;67.68;100997.69;1669973;84;21007;-76
2021/05/22 04:20:01;;;;;;;5.92;1.90;;;;;;;14.27;66.96;100999.34;1670095;85;21007;-76
2021/05/22 04:22:28;;;;;;;5.15;1.40;;;;;;;14.63;66.55;101001.70;1670053;84;20912;-77
2021/05/22 04:25:01;;;;;;;5.30;1.77;;;;;;;15.03;65.40;100997.97;1653293;84;20983;-76
2021/05/22 04:27:25;;;;;;;6.87;2.08;;;;;;;15.51;64.08;100997.97;1668925;84;21288;-77
2021/05/22 04:29:52;;;;;;;4.87;1.90;;;;;;;16.02;62.94;100989.71;1669947;84;20932;-77
2021/05/22 04:32:20;;;;;;;5.50;1.90;;;;;;;16.65;61.34;100992.75;1669987;84;20941;-77
2021/05/22 04:34:47;;;;;;;4.15;2.37;;;;;;;17.28;59.09;100990.81;1670358;86;20943;-76
2021/05/22 04:37:14;;;;;;;5.47;2.20;;;;;;;17.83;57.36;100992.87;1670177;84;21011;-76
2021/05/22 04:39:44;;;;;;;4.83;2.20;;;;;;;18.31;55.44;101000.23;1680185;84;21095;-76
2021/05/22 04:42:12;;;;;;;2.50;1.80;;;;;;;18.69;54.25;101001.34;1671043;84;20994;-77
2021/05/22 04:44:39;;;;;;;7.17;2.67;;;;;;;19.17;52.66;101003.80;1698160;84;21452;-77
2021/05/22 04:47:06;;;;;;;7.45;1.77;;;;;;;19.68;51.05;101007.99;1698044;84;20999;-77
2021/05/22 04:49:33;;;;;;;3.77;2.00;;;;;;;20.01;50.05;101011.17;1698269;84;21011;-77
2021/05/22 04:52:00;;;;;;;6.15;1.82;;;;;;;20.33;49.05;101016.13;1698294;84;21999;-77
2021/05/22 04:54:27;;;;;;;17.48;3.10;;;;;;;20.58;48.65;101007.98;1698247;84;20915;-78
2021/05/22 04:56:54;;;;;;;7.72;3.12;;;;;;;20.91;48.98;101008.38;1698391;84;21518;-79
2021/05/22 04:59:21;;;;;;;2.85;2.00;;;;;;;21.26;48.06;101008.91;1698225;84;20935;-79
2021/05/22 05:01:48;;;;;;;9.10;2.58;;;;;;;21.48;46.69;101010.80;1698333;84;20959;-77
2021/05/22 05:04:15;;;;;;;2.75;1.60;;;;;;;21.65;46.38;101020.59;1698240;84;21073;-78
2021/05/22 05:06:43;;;;;;;4.83;1.42;;;;;;;21.80;44.98;101016.05;1698224;84;21047;-73
2021/05/22 05:09:10;;;;;;;4.65;2.02;;;;;;;21.94;45.08;101017.67;1698319;84;21419;-78
2021/05/22 05:11:36;;;;;;;2.02;1.37;;;;;;;22.10;44.95;101020.94;1698360;84;21002;-78
2021/05/22 05:14:04;;;;;;;3.33;1.55;;;;;;;22.29;44.75;101027.09;1698255;84;21258;-79
2021/05/22 05:16:31;;;;;;;2.47;1.67;;;;;;;22.49;44.30;101028.52;1698352;84;21807;-80
2021/05/22 05:18:57;;;;;;;4.20;1.90;;;;;;;22.55;42.82;101035.91;1698273;84;20939;-79
2021/05/22 05:21:24;;;;;;;4.20;1.40;;;;;;;22.50;42.02;101034.22;1698339;84;20983;-79
2021/05/22 05:23:52;;;;;;;3.52;1.52;;;;;;;22.65;42.47;101038.44;1698503;84;20975;-80
2021/05/22 05:26:19;;;;;;;5.05;3.75;;;;;;;22.86;41.91;101041.22;1698638;84;20983;-78
2021/05/22 05:28:46;;;;;;;1.75;1.42;;;;;;;23.08;42.16;101036.63;1700041;84;21618;-79
2021/05/22 05:31:13;;;;;;;4.55;2.10;;;;;;;23.35;42.10;101034.16;1700221;84;21038;-78
2021/05/22 05:33:41;;;;;;;2.77;1.52;;;;;;;23.61;42.22;101032.33;1698946;84;21341;-80
2021/05/22 05:36:08;;;;;;;4.85;1.62;;;;;;;23.94;41.69;101043.38;1698213;84;20932;-79
2021/05/22 05:38:34;;;;;;;1.62;1.07;;;;;;;24.28;40.96;101044.16;1698437;84;21019;-80
2021/05/22 05:41:01;;;;;;;3.77;1.30;;;;;;;24.61;40.30;101043.58;1698184;84;21080;-80
2021/05/22 05:43:28;;;;;;;1.22;1.10;;;;;;;24.99;38.59;101043.73;1698623;84;20915;-80
2021/05/22 05:45:56;;;;;;;2.50;0.93;;;;;;;25.32;37.03;101042.23;1698547;84;21472;-80
2021/05/22 05:48:23;;;;;;;6.80;1.27;;;;;;;25.60;36.82;101034.47;1698382;84;21141;-78
2021/05/22 05:50:50;;;;;;;2.33;1.10;;;;;;;25.82;34.56;101039.49;1698336;84;21447;-80
2021/05/22 05:53:18;;;;;;;2.90;0.80;;;;;;;25.87;34.03;101035.73;1698250;84;21051;-81
2021/05/22 05:55:45;;;;;;;3.17;0.70;;;;;;;25.92;34.07;101031.19;1698135;84;21526;-79
2021/05/22 05:58:14;;;;;;;3.55;1.10;;;;;;;25.93;34.54;101033.70;1698139;84;21475;-81
2021/05/22 06:00:41;;;;;;;2.52;0.88;;;;;;;26.20;34.91;101038.14;1698183;84;20916;-80
2021/05/22 06:03:08;;;;;;;2.05;0.50;;;;;;;26.50;33.66;101038.13;1698348;84;20895;-80
2021/05/22 06:05:35;;;;;;;2.72;0.72;;;;;;;26.77;32.80;101032.59;1698481;84;21058;-79
2021/05/22 06:08:02;;;;;;;3.22;0.70;;;;;;;27.07;32.51;101027.47;1698191;84;21059;-78
2021/05/22 06:10:32;;;;;;;3.80;0.85;;;;;;;27.19;30.93;101024.27;1698233;84;20904;-78
2021/05/22 06:12:58;;;;;;;2.75;0.70;;;;;;;27.09;31.36;101031.33;1698422;84;20943;-77
2021/05/22 06:15:33;;;;;;;2.30;0.85;;;;;;;27.33;32.91;101036.06;1698318;84;21034;-81
2021/05/22 06:17:56;;;;;;;3.85;0.75;;;;;;;27.64;31.65;101038.42;1696590;84;20998;-81
2021/05/22 06:20:23;;;;;;;4.12;1.10;;;;;;;27.96;30.96;101037.03;1698127;84;20987;-74
2021/05/22 06:22:49;;;;;;;1.02;0.60;;;;;;;28.20;30.80;101034.39;1698300;84;20888;-75
2021/05/22 06:25:16;;;;;;;2.00;0.70;;;;;;;28.42;29.90;101037.84;1698231;84;21038;-71
2021/05/22 06:27:43;;;;;;;5.55;0.50;;;;;;;28.60;29.84;101035.98;1698221;84;21555;-73
2021/05/22 06:30:11;;;;;;;2.70;0.65;;;;;;;28.71;30.14;101042.67;1698274;84;21162;-75
2021/05/22 06:32:38;;;;;;;2.55;0.50;;;;;;;28.77;27.88;101027.52;1698178;84;20935;-72
2021/05/22 06:35:07;;;;;;;3.85;0.68;;;;;;;28.68;27.37;101025.02;1698102;84;20987;-74
2021/05/22 06:37:35;;;;;;;1.42;0.65;;;;;;;28.53;27.82;101033.78;1698188;84;20979;-74
2021/05/22 06:40:06;;;;;;;2.62;1.10;;;;;;;28.64;28.32;101031.03;1697107;84;20983;-75
2021/05/22 06:42:34;;;;;;;6.17;1.02;;;;;;;28.72;28.04;101019.55;1693006;84;21695;-74
2021/05/22 06:45:07;;;;;;;6.47;0.85;;;;;;;28.84;28.27;101018.43;1692768;84;20920;-73
2021/05/22 06:47:31;;;;;;;5.33;0.78;;;;;;;28.93;27.81;101013.16;1692400;84;21457;-73
2021/05/22 06:49:58;;;;;;;1.65;0.60;;;;;;;29.09;26.62;101013.85;1692925;84;20896;-69
2021/05/22 06:52:25;;;;;;;3.87;0.50;;;;;;;29.33;26.75;101008.38;1692949;84;21023;-68
2021/05/22 06:54:52;;;;;;;1.10;0.35;;;;;;;29.55;26.54;101013.08;1692938;84;21045;-68
2021/05/22 06:57:19;;;;;;;5.22;0.68;;;;;;;29.80;26.20;101009.77;1692935;84;20960;-72
2021/05/22 06:59:47;;;;;;;3.47;0.30;;;;;;;29.96;25.22;101004.73;1692914;84;21013;-69
2021/05/22 07:02:14;;;;;;;2.05;1.20;;;;;;;30.06;24.74;101008.38;1692811;84;21133;-72
2021/05/22 07:04:41;;;;;;;2.35;0.60;;;;;;;30.11;24.80;101003.15;1693021;84;21524;-71
2021/05/22 07:07:08;;;;;;;3.77;0.82;;;;;;;30.25;24.73;100992.29;1692952;84;21102;-69
2021/05/22 07:09:35;;;;;;;2.50;0.50;;;;;;;30.19;24.52;100993.13;1692803;84;20999;-70
2021/05/22 07:12:04;;;;;;;1.20;0.60;;;;;;;30.17;24.67;100989.31;1692798;84;20995;-70
2021/05/22 07:14:31;;;;;;;3.75;1.00;;;;;;;30.27;23.89;100983.44;1692955;84;20940;-69
2021/05/22 07:17:00;;;;;;;2.05;0.40;;;;;;;30.41;23.70;100989.13;1692855;84;20956;-70
2021/05/22 07:19:28;;;;;;;3.27;0.70;;;;;;;30.64;23.34;100979.16;1692832;84;21105;-69
2021/05/22 07:21:55;;;;;;;2.98;0.42;;;;;;;30.85;23.21;100978.52;1693009;84;20955;-69
2021/05/22 07:24:22;;;;;;;1.27;0.33;;;;;;;30.95;22.41;100970.78;1693090;84;20907;-69
2021/05/22 07:26:50;;;;;;;2.08;0.90;;;;;;;30.91;23.09;100970.91;1693009;84;20944;-69
2021/05/22 07:29:18;;;;;;;3.17;0.60;;;;;;;30.88;22.75;100966.77;1693052;84;21019;-70
2021/05/22 07:31:45;;;;;;;3.80;0.70;;;;;;;30.86;22.69;100974.77;1692845;84;21585;-72
2021/05/22 07:34:13;;;;;;;5.20;0.80;;;;;;;30.82;22.88;100972.19;1692852;84;20940;-72
2021/05/22 07:36:45;;;;;;;1.22;0.50;;;;;;;30.72;22.49;100969.94;1692902;84;20896;-73
2021/05/22 07:39:13;;;;;;;7.05;0.57;;;;;;;30.53;22.56;100965.77;1692989;84;20928;-72
2021/05/22 07:41:41;;;;;;;3.33;0.53;;;;;;;30.42;23.22;100967.80;1696694;84;20923;-74
2021/05/22 07:44:08;;;;;;;5.35;0.60;;;;;;;30.40;23.10;100957.71;1698284;84;21085;-73
2021/05/22 07:46:35;;;;;;;2.25;0.65;;;;;;;30.50;22.06;100945.87;1698193;84;21003;-73
2021/05/22 07:49:02;;;;;;;12.65;0.78;;;;;;;30.27;22.98;100955.03;1698264;84;21118;-74
2021/05/22 07:51:29;;;;;;;5.28;0.45;;;;;;;30.15;23.12;100949.46;1698041;84;20983;-72
2021/05/22 07:53:57;;;;;;;3.83;0.70;;;;;;;30.09;23.38;100952.48;1698205;84;20884;-73
2021/05/22 07:56:24;;;;;;;4.70;0.88;;;;;;;30.22;23.63;100957.55;1698184;84;21087;-72
2021/05/22 07:58:51;;;;;;;4.25;0.60;;;;;;;30.33;23.33;100952.33;1698088;84;20919;-73
2021/05/22 08:01:18;;;;;;;4.97;1.02;;;;;;;30.42;23.50;100946.68;1698134;84;20908;-74
2021/05/22 08:03:45;;;;;;;3.02;0.55;;;;;;;30.54;23.51;100956.59;1698155;84;20911;-73
2021/05/22 08:06:12;;;;;;;4.90;0.80;;;;;;;30.68;23.47;100945.19;1698360;84;20956;-74
2021/05/22 08:08:39;;;;;;;3.40;0.90;;;;;;;30.87;22.90;100946.13;1698194;84;21100;-74
2021/05/22 08:11:06;;;;;;;3.67;0.50;;;;;;;30.79;23.29;100935.52;1698136;84;20991;-75
2021/05/22 08:13:33;;;;;;;6.28;0.70;;;;;;;30.75;23.31;100934.31;1698069;84;21836;-75
2021/05/22 08:16:02;;;;;;;3.58;0.55;;;;;;;30.80;23.05;100937.19;1698050;84;20915;-72
2021/05/22 08:18:30;;;;;;;1.37;0.50;;;;;;;30.73;22.49;100940.47;1698072;84;20895;-71
2021/05/22 08:20:57;;;;;;;6.03;0.60;;;;;;;30.46;22.29;100945.17;1698089;84;21073;-74
2021/05/22 08:23:24;;;;;;;3.92;0.78;;;;;;;30.17;23.35;100939.26;1698134;84;21618;-73
2021/05/22 08:25:50;;;;;;;2.17;0.70;;;;;;;30.13;23.99;100943.43;1698159;84;20987;-73
2021/05/22 08:28:21;;;;;;;2.62;0.60;;;;;;;30.31;24.40;100938.18;1698194;84;21614;-73
2021/05/22 08:30:49;;;;;;;0.88;0.57;;;;;;;30.49;23.54;100931.23;1698235;84;20947;-75
2021/05/22 08:33:16;;;;;;;2.70;0.85;;;;;;;30.67;23.55;100928.63;1698035;84;21226;-75
2021/05/22 08:35:43;;;;;;;2.55;0.70;;;;;;;30.68;22.42;100921.32;1697994;84;21050;-73
2021/05/22 08:38:11;;;;;;;1.00;0.40;;;;;;;30.78;23.23;100916.27;1698005;84;20942;-73
2021/05/22 08:40:38;;;;;;;0.45;0.40;;;;;;;30.45;21.77;100912.41;1697260;84;21099;-72
2021/05/22 08:45:14;;;;;;;1.98;0.60;;;;;;;30.35;22.31;100912.88;1776755;79;22494;-66
2021/05/22 08:47:42;;;;;;;2.37;0.50;;;;;;;30.25;22.86;100917.35;1749697;82;20973;-69
2021/05/22 08:50:11;;;;;;;2.33;0.50;;;;;;;30.38;22.83;100910.27;1749580;82;20931;-67
2021/05/22 08:52:39;;;;;;;1.98;0.40;;;;;;;30.55;22.26;100914.95;1749310;82;20933;-73
2021/05/22 08:55:08;;;;;;;3.92;0.70;;;;;;;30.60;21.94;100910.77;1749789;82;20914;-71
2021/05/22 08:57:35;;;;;;;3.25;0.40;;;;;;;30.75;22.27;100912.66;1751252;82;20937;-73
2021/05/22 09:00:11;;;;;;;7.10;0.72;;;;;;;30.90;22.93;100917.77;1751209;82;21506;-73
2021/05/22 09:02:38;;;;;;;1.77;0.40;;;;;;;31.07;22.96;100929.73;1749733;82;21398;-72
2021/05/22 09:05:27;;;;;;;3.72;0.62;;;;;;;31.28;21.82;100932.60;1750883;82;20929;-75
2021/05/22 09:08:00;;;;;;;2.50;0.40;;;;;;;31.26;20.97;100929.78;1749454;81;21505;-76
2021/05/22 09:10:33;;;;;;;1.50;0.30;;;;;;;31.02;21.30;100928.22;1749463;80;21538;-81
2021/05/22 09:13:15;;;;;;;0.82;0.53;;;;;;;30.81;21.02;100914.47;1749159;80;20913;-80
2021/05/22 09:15:42;;;;;;;2.98;0.47;;;;;;;30.81;21.94;100920.41;1747866;82;21110;-76
2021/05/22 09:18:14;;;;;;;1.95;0.20;;;;;;;31.00;21.81;100918.66;1749145;82;20859;-72
2021/05/22 09:20:54;;;;;;;0.75;0.40;;;;;;;30.93;21.04;100912.75;1749397;82;20914;-73
2021/05/22 09:23:27;;;;;;;2.17;0.30;;;;;;;30.87;21.66;100911.45;1749137;82;20874;-68
2021/05/22 09:25:57;;;;;;;2.60;0.35;;;;;;;31.00;21.99;100912.70;1749417;82;20922;-69
2021/05/22 09:28:31;;;;;;;5.58;0.95;;;;;;;31.13;21.31;100906.36;1749362;82;21089;-65
2021/05/22 09:30:59;;;;;;;9.15;0.35;;;;;;;31.17;21.08;100908.41;1748099;81;20981;-67
2021/05/22 09:33:29;;;;;;;4.62;0.55;;;;;;;31.19;21.63;100905.45;1749338;82;20977;-66
2021/05/22 09:36:04;;;;;;;3.52;0.42;;;;;;;31.29;19.77;100900.91;1749142;82;20978;-67
2021/05/22 09:38:39;;;;;;;3.50;0.78;;;;;;;31.04;20.50;100902.24;1749234;82;20910;-67
2021/05/22 09:41:25;;;;;;;2.98;0.40;;;;;;;30.84;21.10;100897.80;1749127;82;21155;-68
2021/05/22 09:44:16;;;;;;;3.05;0.40;;;;;;;30.90;21.32;100896.92;1749281;82;20866;-69
2021/05/22 09:46:50;;;;;;;1.45;0.60;;;;;;;30.79;20.70;100888.13;1750141;80;20934;-73
2021/05/22 09:49:25;;;;;;;1.90;0.55;;;;;;;30.45;21.29;100887.52;1749975;82;20918;-68
2021/05/22 09:52:00;;;;;;;2.65;0.50;;;;;;;30.30;21.44;100883.73;1750067;82;20930;-69
2021/05/22 09:54:57;;;;;;;3.33;0.45;;;;;;;30.08;22.34;100886.41;1749972;82;21067;-69
2021/05/22 09:57:42;;;;;;;1.98;0.40;;;;;;;30.04;21.48;100880.63;1749322;82;21521;-69
2021/05/22 10:00:15;;;;;;;3.55;0.50;;;;;;;29.89;22.44;100888.16;1749509;80;20890;-69
2021/05/22 10:02:57;;;;;;;2.92;0.85;;;;;;;29.94;22.18;100880.23;1749407;80;20879;-67
2021/05/22 10:05:33;;;;;;;1.40;0.55;;;;;;;29.80;22.83;100887.56;1749689;80;20878;-70
2021/05/22 10:08:03;;;;;;;1.37;0.40;;;;;;;29.79;22.56;100887.23;1749351;80;20933;-73
2021/05/22 10:10:46;;;;;;;6.95;0.95;;;;;;;29.84;23.44;100892.86;1749277;82;21462;-73
2021/05/22 10:13:16;;;;;;;1.33;0.53;;;;;;;29.85;22.25;100889.62;1749664;81;21447;-75
2021/05/22 10:15:44;;;;;;;2.67;0.70;;;;;;;29.87;22.67;100888.37;1749378;82;21005;-73
2021/05/22 10:18:12;;;;;;;4.17;0.62;;;;;;;29.89;22.36;100884.93;1749452;82;20902;-73
2021/05/22 10:20:40;;;;;;;2.10;0.93;;;;;;;29.96;22.43;100888.97;1749330;80;21104;-76
2021/05/22 10:23:08;;;;;;;2.83;0.60;;;;;;;29.90;22.45;100888.45;1749429;82;20898;-76
2021/05/22 10:25:35;;;;;;;3.20;0.60;;;;;;;29.90;22.79;100880.34;1749449;82;20982;-82
2021/05/22 10:28:04;;;;;;;4.95;0.93;;;;;;;29.88;23.59;100876.52;1749423;82;20890;-74
2021/05/22 10:30:30;;;;;;;0.80;0.65;;;;;;;29.88;23.27;100881.94;1749466;82;20929;-67
2021/05/22 10:33:06;;;;;;;2.12;0.40;;;;;;;29.87;22.90;100870.80;1749499;82;21114;-72
2021/05/22 10:35:43;;;;;;;0.57;0.45;;;;;;;29.75;22.70;100892.26;1749427;80;20926;-71
2021/05/22 10:38:10;;;;;;;1.17;0.45;;;;;;;29.52;22.82;100887.27;1749496;80;21376;-79
2021/05/22 10:40:47;;;;;;;3.22;0.53;;;;;;;29.32;23.56;100896.75;1749342;82;21053;-69
2021/05/22 10:43:14;;;;;;;3.77;0.60;;;;;;;29.35;24.07;100906.34;1749395;82;20942;-69
2021/05/22 10:45:44;;;;;;;4.03;0.45;;;;;;;29.38;23.38;100891.58;1749170;80;21487;-69
2021/05/22 10:48:22;;;;;;;1.70;0.50;;;;;;;29.33;23.34;100898.96;1749301;82;21383;-68
2021/05/22 10:50:49;;;;;;;1.92;0.53;;;;;;;29.40;22.98;100901.13;1749420;82;20886;-68
2021/05/22 10:53:29;;;;;;;1.55;0.60;;;;;;;29.33;23.62;100904.36;1749418;82;20966;-70
2021/05/22 10:56:14;;;;;;;1.05;0.30;;;;;;;29.37;23.18;100908.81;1749438;81;20958;-70
2021/05/22 10:59:09;;;;;;;1.50;0.30;;;;;;;29.34;23.12;100903.31;1749382;80;22034;-69
2021/05/22 11:01:44;;;;;;;3.02;0.85;;;;;;;29.20;23.21;100902.49;1749364;82;20894;-69
2021/05/22 11:04:21;;;;;;;4.40;0.72;;;;;;;28.99;23.18;100905.35;1749692;80;20890;-70
2021/05/22 11:06:55;;;;;;;2.90;0.60;;;;;;;28.73;23.97;100904.30;1749406;82;21400;-69
2021/05/22 11:09:36;;;;;;;2.62;0.50;;;;;;;28.61;23.32;100893.25;1749513;80;20875;-70
2021/05/22 11:12:17;;;;;;;3.17;1.07;;;;;;;28.52;23.57;100889.08;1749317;82;21833;-69
2021/05/22 11:14:53;;;;;;;0.85;0.33;;;;;;;28.47;23.96;100896.94;1743235;81;21049;-70
2021/05/22 11:17:26;;;;;;;2.50;0.50;;;;;;;28.55;25.51;100905.38;1749455;82;20851;-69
2021/05/22 11:20:07;;;;;;;1.42;0.60;;;;;;;28.57;24.64;100901.95;1749213;80;21471;-69
2021/05/22 11:22:47;;;;;;;3.75;0.70;;;;;;;28.59;25.27;100895.84;1749322;82;21446;-69
2021/05/22 11:25:17;;;;;;;3.62;0.78;;;;;;;28.60;25.51;100888.91;1749317;82;21652;-71
2021/05/22 11:28:10;;;;;;;2.55;0.95;;;;;;;28.47;24.26;100880.25;1749358;82;20994;-70
2021/05/22 11:30:33;;;;;;;4.20;0.60;;;;;;;28.42;24.51;100887.28;1741246;82;20970;-70
2021/05/22 11:33:08;;;;;;;1.05;0.60;;;;;;;28.22;22.92;100876.42;1749381;80;20949;-70
2021/05/22 11:35:41;;;;;;;1.32;0.78;;;;;;;27.86;23.30;100880.21;1749330;82;21047;-70
2021/05/22 11:38:21;;;;;;;1.75;0.70;;;;;;;27.65;25.23;100880.56;1749295;80;21056;-69
2021/05/22 11:40:52;;;;;;;1.12;0.80;;;;;;;27.45;24.67;100885.00;1749292;82;20902;-70